createdAt,value
2018-04-17T00:02:12.817Z,3.30
2018-04-17T00:04:40.340Z,3.50
2018-04-17T00:07:08.754Z,3.42
2018-04-17T00:09:36.290Z,2.93
2018-04-17T00:12:03.811Z,2.90
2018-04-17T00:14:31.570Z,3.28
2018-04-17T00:16:59.126Z,3.20
2018-04-17T00:19:26.662Z,3.03
2018-04-17T00:21:54.414Z,2.78
2018-04-17T00:24:21.935Z,2.62
2018-04-17T00:26:49.470Z,3.50
2018-04-17T00:29:17.045Z,2.87
2018-04-17T00:31:44.586Z,2.85
2018-04-17T00:34:12.122Z,3.20
2018-04-17T00:36:40.099Z,2.70
2018-04-17T00:39:07.619Z,3.22
2018-04-17T00:41:35.127Z,3.47
2018-04-17T00:44:02.924Z,2.78
2018-04-17T00:46:30.434Z,3.33
2018-04-17T00:48:57.947Z,2.65
2018-04-17T00:51:25.511Z,3.12
2018-04-17T00:53:53.683Z,3.22
2018-04-17T00:56:21.214Z,4.22
2018-04-17T00:58:48.770Z,4.07
2018-04-17T01:01:16.288Z,4.28
2018-04-17T01:03:43.795Z,3.10
2018-04-17T01:06:11.343Z,3.80
2018-04-17T01:08:38.855Z,4.28
2018-04-17T01:11:06.372Z,4.07
2018-04-17T01:13:34.064Z,4.32
2018-04-17T01:16:01.610Z,3.20
2018-04-17T01:18:29.115Z,4.30
2018-04-17T01:20:56.666Z,3.65
2018-04-17T01:23:24.233Z,3.37
2018-04-17T01:25:51.762Z,3.47
2018-04-17T01:28:19.424Z,2.75
2018-04-17T01:30:46.927Z,3.30
2018-04-17T01:33:14.432Z,3.10
2018-04-17T01:35:41.963Z,3.50
2018-04-17T01:38:09.486Z,3.60
2018-04-17T01:40:36.995Z,2.97
2018-04-17T01:43:04.787Z,3.90
2018-04-17T01:45:32.335Z,4.22
2018-04-17T01:47:59.854Z,3.05
2018-04-17T01:50:27.403Z,3.12
2018-04-17T01:52:54.914Z,4.30
2018-04-17T01:55:22.419Z,3.05
2018-04-17T01:57:49.992Z,3.87
2018-04-17T02:00:17.506Z,3.37
2018-04-17T02:02:45.066Z,3.78
2018-04-17T02:05:12.815Z,3.80
2018-04-17T02:07:40.328Z,3.67
2018-04-17T02:10:07.835Z,3.70
2018-04-17T02:12:35.373Z,4.43
2018-04-17T02:15:02.895Z,4.35
2018-04-17T02:17:30.708Z,4.50
2018-04-17T02:19:58.384Z,3.90
2018-04-17T02:22:25.895Z,4.18
2018-04-17T02:24:53.399Z,3.08
2018-04-17T02:27:21.061Z,3.78
2018-04-17T02:29:48.581Z,4.28
2018-04-17T02:32:16.087Z,3.33
2018-04-17T02:34:43.639Z,5.07
2018-04-17T02:37:11.165Z,4.07
2018-04-17T02:39:38.675Z,4.80
2018-04-17T02:42:07.772Z,4.57
2018-04-17T02:44:35.272Z,4.05
2018-04-17T02:47:02.778Z,4.40
2018-04-17T02:49:30.422Z,4.00
2018-04-17T02:51:57.930Z,4.43
2018-04-17T02:54:25.466Z,5.07
2018-04-17T02:56:53.057Z,3.60
2018-04-17T02:59:20.566Z,3.95
2018-04-17T03:01:48.075Z,4.40
2018-04-17T03:04:15.791Z,4.00
2018-04-17T03:06:43.303Z,4.07
2018-04-17T03:09:10.807Z,4.03
2018-04-17T03:11:38.371Z,5.07
2018-04-17T03:14:05.879Z,5.50
2018-04-17T03:16:33.391Z,4.90
2018-04-17T03:19:01.135Z,4.68
2018-04-17T03:21:28.640Z,4.25
2018-04-17T03:23:56.147Z,4.47
2018-04-17T03:26:23.811Z,4.30
2018-04-17T03:28:51.323Z,4.47
2018-04-17T03:31:18.828Z,5.55
2018-04-17T03:33:46.590Z,4.82
2018-04-17T03:36:14.087Z,5.07
2018-04-17T03:38:41.587Z,4.55
2018-04-17T03:41:09.120Z,5.18
2018-04-17T03:43:36.873Z,4.50
2018-04-17T03:46:04.387Z,5.40
2018-04-17T03:48:32.092Z,4.45
2018-04-17T03:50:59.607Z,4.95
2018-04-17T03:53:27.116Z,5.10
2018-04-17T03:55:54.662Z,4.90
2018-04-17T03:58:23.139Z,4.90
2018-04-17T04:00:50.694Z,4.78
2018-04-17T04:03:18.628Z,10.77
2018-04-17T04:05:46.224Z,8.93
2018-04-17T04:08:13.743Z,6.43
2018-04-17T04:10:41.618Z,5.20
2018-04-17T04:13:09.125Z,4.70
2018-04-17T04:15:36.639Z,4.82
2018-04-17T04:21:23.337Z,4.65
2018-04-17T04:24:03.058Z,5.40
2018-04-17T04:26:32.391Z,4.22
2018-04-17T04:28:59.900Z,5.12
2018-04-17T04:31:29.715Z,5.12
2018-04-17T04:33:57.219Z,4.22
2018-04-17T04:36:24.724Z,5.30
2018-04-17T04:38:52.455Z,5.72
2018-04-17T04:41:19.964Z,4.97
2018-04-17T04:43:47.466Z,4.95
2018-04-17T04:46:15.340Z,5.47
2018-04-17T04:48:42.842Z,4.95
2018-04-17T04:51:10.353Z,4.72
2018-04-17T04:53:38.126Z,4.75
2018-04-17T04:56:05.634Z,5.50
2018-04-17T04:58:33.138Z,5.53
2018-04-17T05:01:00.722Z,5.87
2018-04-17T05:03:28.232Z,5.12
2018-04-17T05:05:55.743Z,5.90
2018-04-17T05:08:23.404Z,5.62
2018-04-17T05:10:50.918Z,4.68
2018-04-17T05:13:18.431Z,5.87
2018-04-17T05:15:45.981Z,6.53
2018-04-17T05:18:13.495Z,5.87
2018-04-17T05:20:41.915Z,5.55
2018-04-17T05:23:09.656Z,6.32
2018-04-17T05:25:37.172Z,6.15
2018-04-17T05:28:04.680Z,5.60
2018-04-17T05:30:32.428Z,5.90
2018-04-17T05:33:00.428Z,5.68
2018-04-17T05:35:27.942Z,5.50
2018-04-17T05:37:55.619Z,5.65
2018-04-17T05:40:23.131Z,5.05
2018-04-17T05:42:50.639Z,5.90
2018-04-17T05:45:18.299Z,5.55
2018-04-17T05:47:45.811Z,5.25
2018-04-17T05:50:13.392Z,5.60
2018-04-17T05:52:40.899Z,5.87
2018-04-17T05:55:08.403Z,6.05
2018-04-17T05:57:35.911Z,5.78
2018-04-17T06:00:03.567Z,6.85
2018-04-17T06:02:31.226Z,6.12
2018-04-17T06:04:58.739Z,5.50
2018-04-17T06:07:26.538Z,5.82
2018-04-17T06:09:54.041Z,5.57
2018-04-17T06:12:21.545Z,5.15
2018-04-17T06:14:49.089Z,5.18
2018-04-17T06:17:16.603Z,5.25
2018-04-17T06:19:44.121Z,5.60
2018-04-17T06:22:11.664Z,5.10
2018-04-17T06:24:39.172Z,5.32
2018-04-17T06:27:06.685Z,6.00
2018-04-17T06:29:34.236Z,4.70
2018-04-17T06:32:01.748Z,5.25
2018-04-17T06:34:29.260Z,5.17
2018-04-17T06:36:56.942Z,4.77
2018-04-17T06:39:24.442Z,4.53
2018-04-17T06:41:51.954Z,4.53
2018-04-17T06:44:19.511Z,4.63
2018-04-17T06:46:47.020Z,3.97
2018-04-17T06:49:14.523Z,5.37
2018-04-17T06:51:42.395Z,5.40
2018-04-17T06:54:09.904Z,5.40
2018-04-17T06:56:37.406Z,5.60
2018-04-17T06:59:04.948Z,6.07
2018-04-17T07:01:32.450Z,4.70
2018-04-17T07:03:59.956Z,4.57
2018-04-17T07:06:27.652Z,5.17
2018-04-17T07:08:55.652Z,4.83
2018-04-17T07:11:23.162Z,4.70
2018-04-17T07:13:50.700Z,4.73
2018-04-17T07:16:18.200Z,5.07
2018-04-17T07:18:45.696Z,4.43
2018-04-17T07:21:13.415Z,5.20
2018-04-17T07:23:40.931Z,5.50
2018-04-17T07:26:08.435Z,6.10
2018-04-17T07:28:36.095Z,6.00
2018-04-17T07:31:03.603Z,5.80
2018-04-17T07:33:31.111Z,6.83
2018-04-17T07:35:58.660Z,6.20
2018-04-17T07:38:26.170Z,7.00
2018-04-17T07:40:53.695Z,8.83
2018-04-17T07:43:21.382Z,8.03
2018-04-17T07:45:48.883Z,6.60
2018-04-17T07:48:28.552Z,6.10
2018-04-17T07:50:56.055Z,6.93
2018-04-17T07:53:23.566Z,7.43
2018-04-17T07:55:51.133Z,6.87
2018-04-17T07:58:18.633Z,5.93
2018-04-17T08:00:46.146Z,6.40
2018-04-17T08:03:13.810Z,6.17
2018-04-17T08:05:41.314Z,7.43
2018-04-17T08:08:08.820Z,5.80
2018-04-17T08:10:36.483Z,7.23
2018-04-17T08:13:04.000Z,6.47
2018-04-17T08:15:31.662Z,6.33
2018-04-17T08:17:59.362Z,5.77
2018-04-17T08:20:26.883Z,5.70
2018-04-17T08:22:54.387Z,7.10
2018-04-17T08:25:22.047Z,7.53
2018-04-17T08:27:49.588Z,6.47
2018-04-17T08:30:17.075Z,6.13
2018-04-17T08:32:44.650Z,6.77
2018-04-17T08:35:12.160Z,5.77
2018-04-17T08:37:39.669Z,6.97
2018-04-17T08:40:07.394Z,5.67
2018-04-17T08:42:34.907Z,5.03
2018-04-17T08:45:02.419Z,6.00
2018-04-17T08:47:30.059Z,5.80
2018-04-17T08:49:57.564Z,6.23
2018-04-17T08:52:25.073Z,9.00
2018-04-17T08:54:52.750Z,6.17
2018-04-17T08:57:20.251Z,6.67
2018-04-17T08:59:47.766Z,6.67
2018-04-17T09:02:16.470Z,7.00
2018-04-17T09:04:44.963Z,6.30
2018-04-17T09:07:12.469Z,5.97
2018-04-17T09:09:40.363Z,5.97
2018-04-17T09:12:07.883Z,6.17
2018-04-17T09:14:35.387Z,6.30
2018-04-17T09:17:02.942Z,5.77
2018-04-17T09:19:30.452Z,5.20
2018-04-17T09:21:57.950Z,6.63
2018-04-17T09:24:25.710Z,6.67
2018-04-17T09:26:53.271Z,5.63
2018-04-17T09:29:20.820Z,5.07
2018-04-17T09:31:48.340Z,6.83
2018-04-17T09:34:16.299Z,6.07
2018-04-17T09:36:43.800Z,5.70
2018-04-17T09:39:11.331Z,5.93
2018-04-17T09:41:38.843Z,8.37
2018-04-17T09:44:06.447Z,6.37
2018-04-17T09:46:34.838Z,5.70
2018-04-17T09:49:02.342Z,5.87
2018-04-17T09:51:29.847Z,6.00
2018-04-17T09:53:58.023Z,5.00
2018-04-17T09:56:25.524Z,5.03
2018-04-17T09:58:53.505Z,5.73
2018-04-17T10:01:22.935Z,5.60
2018-04-17T10:03:50.593Z,5.70
2018-04-17T10:06:18.100Z,5.10
2018-04-17T10:08:45.931Z,5.33
2018-04-17T10:11:13.400Z,5.53
2018-04-17T10:13:40.915Z,5.60
2018-04-17T10:16:08.554Z,5.13
2018-04-17T10:18:37.046Z,5.90
2018-04-17T10:21:04.551Z,5.63
2018-04-17T10:23:32.095Z,6.50
2018-04-17T10:26:00.572Z,6.40
2018-04-17T10:28:28.539Z,6.47
2018-04-17T10:30:57.021Z,6.53
2018-04-17T10:33:25.424Z,6.00
2018-04-17T10:35:52.919Z,5.43
2018-04-17T10:38:20.595Z,5.93
2018-04-17T10:40:48.096Z,4.90
2018-04-17T10:43:15.605Z,5.80
2018-04-17T10:45:43.264Z,5.93
2018-04-17T10:48:11.273Z,5.50
2018-04-17T10:50:39.728Z,5.37
2018-04-17T10:53:07.379Z,5.43
2018-04-17T10:55:34.880Z,4.50
2018-04-17T10:58:02.380Z,5.27
2018-04-17T11:00:29.928Z,4.90
2018-04-17T11:02:57.427Z,5.27
2018-04-17T11:05:24.928Z,5.07
2018-04-17T11:07:52.846Z,5.13
2018-04-17T11:10:20.371Z,4.53
2018-04-17T11:12:47.876Z,4.83
2018-04-17T11:15:15.407Z,6.30
2018-04-17T11:17:42.919Z,5.40
2018-04-17T11:20:10.415Z,5.13
2018-04-17T11:22:38.186Z,4.30
2018-04-17T11:25:05.685Z,3.53
2018-04-17T11:27:33.197Z,4.07
2018-04-17T11:30:00.735Z,4.83
2018-04-17T11:32:28.235Z,3.87
2018-04-17T11:34:55.739Z,4.17
2018-04-17T11:37:23.268Z,3.63
2018-04-17T11:39:50.761Z,4.10
2018-04-17T11:42:18.266Z,4.20
2018-04-17T11:44:45.917Z,3.60
2018-04-17T11:47:13.421Z,4.10
2018-04-17T11:49:40.925Z,4.70
2018-04-17T11:52:08.543Z,4.27
2018-04-17T11:54:36.045Z,5.40
2018-04-17T11:57:03.546Z,4.67
2018-04-17T11:59:31.379Z,3.57
2018-04-17T12:01:58.883Z,4.30
2018-04-17T12:04:26.391Z,4.13
2018-04-17T12:06:53.985Z,4.10
2018-04-17T12:09:21.497Z,3.70
2018-04-17T12:11:49.004Z,3.20
2018-04-17T12:14:16.733Z,3.90
2018-04-17T12:16:44.325Z,3.70
2018-04-17T12:19:11.852Z,3.13
2018-04-17T12:21:39.402Z,3.90
2018-04-17T12:24:06.904Z,4.17
2018-04-17T12:26:34.418Z,4.27
2018-04-17T12:29:02.085Z,3.37
2018-04-17T12:31:29.587Z,3.30
2018-04-17T12:33:57.084Z,4.00
2018-04-17T12:36:24.636Z,3.03
2018-04-17T12:38:52.136Z,2.97
2018-04-17T12:41:19.674Z,2.97
2018-04-17T12:43:47.220Z,2.93
2018-04-17T12:46:14.897Z,3.30
2018-04-17T12:48:42.402Z,3.20
2018-04-17T12:51:10.027Z,2.90
2018-04-17T12:53:37.551Z,3.10
2018-04-17T12:56:05.051Z,3.20
2018-04-17T12:58:32.618Z,3.70
2018-04-17T13:01:00.393Z,2.73
2018-04-17T13:03:27.989Z,2.73
2018-04-17T13:05:55.920Z,2.30
2018-04-17T13:08:24.298Z,2.30
2018-04-17T13:10:52.883Z,3.10
2018-04-17T13:13:21.769Z,3.60
2018-04-17T13:15:49.314Z,2.53
2018-04-17T13:18:16.867Z,2.70
2018-04-17T13:20:44.596Z,2.90
2018-04-17T13:23:12.110Z,4.97
2018-04-17T13:25:39.827Z,6.50
2018-04-17T13:28:07.530Z,3.97
2018-04-17T13:30:35.027Z,3.03
2018-04-17T13:33:03.399Z,2.53
2018-04-17T13:35:31.183Z,2.70
2018-04-17T13:37:58.691Z,2.60
2018-04-17T13:40:26.219Z,2.20
2018-04-17T13:42:53.901Z,2.80
2018-04-17T13:45:21.491Z,1.90
2018-04-17T13:47:49.077Z,2.27
2018-04-17T13:50:17.181Z,2.63
2018-04-17T13:52:44.826Z,2.43
2018-04-17T13:55:12.432Z,3.03
2018-04-17T13:57:40.263Z,1.93
2018-04-17T14:00:07.773Z,2.40
2018-04-17T14:02:35.512Z,2.00
2018-04-17T14:05:03.387Z,2.77
2018-04-17T14:07:31.049Z,1.80
2018-04-17T14:09:58.624Z,2.27
2018-04-17T14:12:26.676Z,2.33
2018-04-17T14:14:54.202Z,2.40
2018-04-17T14:17:21.748Z,2.07
2018-04-17T14:19:49.444Z,2.10
2018-04-17T14:22:17.009Z,2.10
2018-04-17T14:24:44.783Z,2.40
2018-04-17T14:27:12.657Z,2.53
2018-04-17T14:29:40.311Z,2.50
2018-04-17T14:32:07.911Z,2.03
2018-04-17T14:34:35.843Z,1.97
2018-04-17T14:37:03.810Z,1.50
2018-04-17T14:39:31.343Z,1.80
2018-04-17T14:41:59.138Z,1.30
2018-04-17T14:44:26.908Z,1.80
2018-04-17T14:46:54.767Z,1.37
2018-04-17T14:49:22.835Z,1.40
2018-04-17T14:51:50.497Z,1.57
2018-04-17T14:54:18.080Z,1.60
2018-04-17T14:56:45.614Z,2.10
2018-04-17T14:59:13.124Z,2.10
2018-04-17T15:01:40.838Z,2.10
2018-04-17T15:04:08.704Z,1.80
2018-04-17T15:06:36.280Z,2.20
2018-04-17T15:09:07.318Z,2.13
2018-04-17T15:11:35.517Z,2.30
2018-04-17T15:14:03.256Z,2.30
2018-04-17T15:16:32.812Z,3.10
2018-04-17T15:19:01.422Z,1.97
2018-04-17T15:21:29.313Z,2.37
2018-04-17T15:23:57.335Z,2.60
2018-04-17T15:26:25.340Z,2.33
2018-04-17T15:28:52.928Z,3.40
2018-04-17T15:31:20.439Z,2.43
2018-04-17T15:33:48.295Z,2.30
2018-04-17T15:36:15.807Z,2.30
2018-04-17T15:38:43.443Z,2.23
2018-04-17T15:41:11.316Z,2.00
2018-04-17T15:43:39.025Z,2.77
2018-04-17T15:46:06.627Z,2.10
2018-04-17T15:48:34.178Z,2.10
2018-04-17T15:51:01.681Z,2.77
2018-04-17T15:53:29.313Z,2.60
2018-04-17T15:55:57.384Z,2.00
2018-04-17T15:58:25.454Z,1.80
2018-04-17T16:00:53.013Z,2.30
2018-04-17T16:03:20.586Z,2.53
2018-04-17T16:05:48.104Z,2.40
2018-04-17T16:08:15.681Z,2.40
2018-04-17T16:10:43.422Z,2.83
2018-04-17T16:13:10.971Z,3.13
2018-04-17T16:15:38.508Z,2.53
2018-04-17T16:18:06.356Z,1.90
2018-04-17T16:20:34.583Z,2.13
2018-04-17T16:23:02.099Z,1.90
2018-04-17T16:25:29.927Z,2.10
2018-04-17T16:27:57.586Z,2.70
2018-04-17T16:30:25.569Z,2.20
2018-04-17T16:32:54.256Z,3.10
2018-04-17T16:35:21.777Z,2.20
2018-04-17T16:37:49.303Z,2.60
2018-04-17T16:40:17.348Z,2.80
2018-04-17T16:42:45.209Z,2.90
2018-04-17T16:45:13.074Z,2.57
2018-04-17T16:47:40.947Z,2.77
2018-04-17T16:50:09.423Z,2.80
2018-04-17T16:52:36.997Z,3.23
2018-04-17T16:55:04.849Z,4.50
2018-04-17T16:57:32.613Z,3.30
2018-04-17T17:00:00.378Z,5.70
2018-04-17T17:02:28.143Z,5.03
2018-04-17T17:04:55.794Z,3.60
2018-04-17T17:07:23.773Z,3.03
2018-04-17T17:09:51.706Z,3.43
2018-04-17T17:12:19.405Z,5.00
2018-04-17T17:14:47.577Z,5.67
2018-04-17T17:17:15.710Z,6.57
2018-04-17T17:19:43.413Z,7.63
2018-04-17T17:22:11.242Z,5.67
2018-04-17T17:24:39.248Z,4.17
2018-04-17T17:27:07.117Z,2.37
2018-04-17T17:29:34.871Z,2.90
2018-04-17T17:32:02.756Z,3.07
2018-04-17T17:34:31.117Z,3.00
2018-04-17T17:36:58.824Z,3.10
2018-04-17T17:39:26.968Z,3.53
2018-04-17T17:41:54.724Z,4.07
2018-04-17T17:44:22.900Z,3.67
2018-04-17T17:46:50.762Z,3.40
2018-04-17T17:49:18.740Z,3.63
2018-04-17T17:51:46.604Z,4.77
2018-04-17T17:54:14.875Z,2.67
2018-04-17T17:56:44.483Z,3.90
2018-04-17T17:59:12.772Z,3.60
2018-04-17T18:01:40.947Z,3.03
2018-04-17T18:04:08.801Z,4.00
2018-04-17T18:06:37.032Z,3.80
2018-04-17T18:09:05.147Z,4.00
2018-04-17T18:11:33.013Z,4.40
2018-04-17T18:14:01.257Z,4.10
2018-04-17T18:16:30.083Z,5.17
2018-04-17T18:18:57.945Z,4.37
2018-04-17T18:21:26.132Z,4.80
2018-04-17T18:23:54.773Z,5.80
2018-04-17T18:26:23.387Z,4.80
2018-04-17T18:28:51.467Z,4.67
2018-04-17T18:31:20.243Z,4.73
2018-04-17T18:33:48.829Z,5.20
2018-04-17T18:36:16.884Z,5.20
2018-04-17T18:38:44.767Z,5.00
2018-04-17T18:41:12.493Z,4.43
2018-04-17T18:43:40.398Z,5.97
2018-04-17T18:46:08.368Z,5.37
2018-04-17T18:48:36.235Z,4.80
2018-04-17T18:51:04.101Z,5.43
2018-04-17T18:53:31.862Z,5.60
2018-04-17T18:55:59.737Z,5.87
2018-04-17T18:58:27.597Z,5.37
2018-04-17T19:00:55.568Z,6.60
2018-04-17T19:03:23.740Z,5.33
2018-04-17T19:05:52.032Z,5.80
2018-04-17T19:08:20.191Z,4.30
2018-04-17T19:10:47.955Z,5.97
2018-04-17T19:13:16.845Z,6.13
2018-04-17T19:15:44.710Z,4.07
2018-04-17T19:18:12.577Z,5.40
2018-04-17T19:20:40.342Z,4.77
2018-04-17T19:23:08.260Z,4.33
2018-04-17T19:25:36.074Z,4.50
2018-04-17T19:28:04.247Z,4.70
2018-04-17T19:30:32.219Z,4.90
2018-04-17T19:33:00.147Z,4.67
2018-04-17T19:35:28.055Z,4.60
2018-04-17T19:37:56.226Z,5.13
2018-04-17T19:40:24.399Z,5.20
2018-04-17T19:42:52.369Z,4.63
2018-04-17T19:45:20.290Z,5.60
2018-04-17T19:47:48.408Z,6.27
2018-04-17T19:50:17.095Z,6.40
2018-04-17T19:52:45.269Z,6.67
2018-04-17T19:55:13.556Z,6.20
2018-04-17T19:57:41.412Z,6.77
2018-04-17T20:00:09.789Z,7.20
2018-04-17T20:02:38.088Z,8.83
2018-04-17T20:05:06.035Z,8.73
2018-04-17T20:07:34.108Z,9.00
2018-04-17T20:10:01.974Z,9.67
2018-04-17T20:12:30.756Z,10.30
2018-04-17T20:14:58.935Z,10.10
2018-04-17T20:17:26.904Z,10.53
2018-04-17T20:19:54.771Z,8.60
2018-04-17T20:22:23.470Z,9.10
2018-04-17T20:24:52.346Z,5.70
2018-04-17T20:27:21.134Z,6.33
2018-04-17T20:29:49.076Z,6.77
2018-04-17T20:32:17.072Z,6.60
2018-04-17T20:34:44.939Z,6.20
2018-04-17T20:37:13.113Z,5.20
2018-04-17T20:39:40.942Z,5.00
2018-04-17T20:42:08.858Z,5.97
2018-04-17T20:44:37.736Z,4.40
2018-04-17T20:47:05.575Z,4.77
2018-04-17T20:49:33.362Z,5.43
2018-04-17T20:52:01.804Z,5.20
2018-04-17T20:54:30.023Z,5.30
2018-04-17T20:56:57.992Z,5.70
2018-04-17T20:59:25.858Z,4.43
2018-04-17T21:01:53.725Z,4.70
2018-04-17T21:04:21.692Z,3.97
2018-04-17T21:06:49.559Z,4.57
2018-04-17T21:09:17.178Z,4.80
2018-04-17T21:11:45.105Z,3.73
2018-04-17T21:14:13.735Z,4.27
2018-04-17T21:16:41.556Z,4.40
2018-04-17T21:19:09.200Z,3.93
2018-04-17T21:21:36.932Z,4.70
2018-04-17T21:24:05.236Z,4.63
2018-04-17T21:26:32.999Z,3.60
2018-04-17T21:29:00.936Z,4.80
2018-04-17T21:31:28.447Z,4.33
2018-04-17T21:33:56.117Z,3.97
2018-04-17T21:36:23.931Z,4.13
2018-04-17T21:38:51.485Z,4.13
2018-04-17T21:41:18.987Z,3.60
2018-04-17T21:43:46.715Z,4.57
2018-04-17T21:46:14.228Z,4.47
2018-04-17T21:48:41.728Z,4.07
2018-04-17T21:51:10.134Z,3.70
2018-04-17T21:53:37.638Z,4.07
2018-04-17T21:56:05.154Z,3.83
2018-04-17T21:58:32.692Z,4.37
2018-04-17T22:01:00.190Z,3.97
2018-04-17T22:03:27.689Z,3.77
2018-04-17T22:05:55.469Z,4.30
2018-04-17T22:08:22.981Z,4.63
2018-04-17T22:10:50.509Z,3.67
2018-04-17T22:13:18.051Z,5.10
2018-04-17T22:15:45.561Z,4.23
2018-04-17T22:18:13.066Z,5.20
2018-04-17T22:20:40.764Z,4.70
2018-04-17T22:23:08.319Z,4.30
2018-04-17T22:25:35.830Z,4.90
2018-04-17T22:28:03.373Z,5.30
2018-04-17T22:30:30.879Z,4.63
2018-04-17T22:32:58.386Z,5.43
2018-04-17T22:35:26.173Z,4.83
2018-04-17T22:37:54.501Z,7.47
2018-04-17T22:40:22.007Z,5.97
2018-04-17T22:42:49.549Z,6.07
2018-04-17T22:45:17.074Z,5.90
2018-04-17T22:47:44.571Z,6.53
2018-04-17T22:50:12.099Z,5.37
2018-04-17T22:52:39.599Z,6.07
2018-04-17T22:55:07.102Z,6.60
2018-04-17T22:57:34.919Z,6.20
2018-04-17T23:00:02.435Z,5.97
2018-04-17T23:02:29.940Z,7.17
2018-04-17T23:04:57.708Z,6.20
2018-04-17T23:07:25.220Z,5.67
2018-04-17T23:09:52.724Z,5.10
2018-04-17T23:12:20.687Z,6.55
2018-04-17T23:14:48.198Z,6.00
2018-04-17T23:17:15.702Z,5.73
2018-04-17T23:19:43.232Z,5.30
2018-04-17T23:22:11.035Z,5.50
2018-04-17T23:24:38.547Z,4.37
2018-04-17T23:27:06.100Z,5.10
2018-04-17T23:29:33.629Z,5.40
2018-04-17T23:32:01.159Z,5.30
2018-04-17T23:34:28.803Z,5.70
2018-04-17T23:36:56.323Z,4.47
2018-04-17T23:39:24.018Z,5.35
2018-04-17T23:41:51.563Z,4.87
2018-04-17T23:44:19.088Z,4.95
2018-04-17T23:46:46.610Z,5.32
2018-04-17T23:49:14.151Z,5.05
2018-04-17T23:51:41.672Z,5.68
2018-04-17T23:54:09.185Z,6.45
2018-04-17T23:56:36.878Z,6.28
2018-04-17T23:59:04.403Z,7.10
